Time;durP1;ratioP1;P1;durP2;ratioP2;P2;SDS_P1;SDS_P2;PMS_P1;PMS_P2;Temp;Humidity;BMP_temperature;BMP_pressure;BME280_temperature;BME280_humidity;BME280_pressure;Samples;Min_cycle;Max_cycle;Signal;HPM_P1;HPM_P2
2022/05/08 00:01:49;;;;;;;3.90;1.80;;;;;;;;;;5051113;28;20024;-66
2022/05/08 00:04:15;;;;;;;2.70;1.60;;;;;;;;;;5050763;28;20539;-67
2022/05/08 00:06:40;;;;;;;4.15;1.90;;;;;;;;;;5051188;28;20051;-65
2022/05/08 00:09:05;;;;;;;4.68;1.75;;;;;;;;;;5050599;28;20115;-65
2022/05/08 00:11:31;;;;;;;4.32;1.70;;;;;;;;;;5050949;28;20019;-65
2022/05/08 00:13:56;;;;;;;4.05;1.77;;;;;;;;;;5050473;28;20053;-69
2022/05/08 00:16:22;;;;;;;4.18;1.63;;;;;;;;;;5050617;28;20131;-68
2022/05/08 00:18:48;;;;;;;2.97;1.50;;;;;;;;;;5050572;28;20017;-67
2022/05/08 00:21:13;;;;;;;4.07;1.67;;;;;;;;;;5050853;28;20027;-67
2022/05/08 00:23:39;;;;;;;3.25;1.70;;;;;;;;;;5050936;28;20399;-68
2022/05/08 00:26:07;;;;;;;3.83;1.75;;;;;;;;;;5050341;28;20029;-67
2022/05/08 00:28:35;;;;;;;2.42;1.60;;;;;;;;;;5050830;28;20431;-66
2022/05/08 00:31:00;;;;;;;5.60;1.77;;;;;;;;;;5050057;28;20021;-66
2022/05/08 00:33:26;;;;;;;3.17;1.90;;;;;;;;;;5050521;28;20029;-68
2022/05/08 00:35:51;;;;;;;3.05;1.45;;;;;;;;;;5050416;28;20091;-67
2022/05/08 00:38:16;;;;;;;2.50;1.50;;;;;;;;;;5050841;28;20033;-65
2022/05/08 00:40:42;;;;;;;3.45;1.50;;;;;;;;;;5049229;28;20032;-67
2022/05/08 00:43:37;;;;;;;4.35;1.80;;;;;;;;;;5050239;28;20126;-67
2022/05/08 00:46:10;;;;;;;4.30;1.50;;;;;;;;;;5050176;28;20432;-68
2022/05/08 00:48:36;;;;;;;2.45;1.60;;;;;;;;;;5050371;28;20029;-68
2022/05/08 00:51:04;;;;;;;3.40;1.70;;;;;;;;;;5049893;28;20025;-68
2022/05/08 00:53:38;;;;;;;2.90;1.65;;;;;;;;;;5050337;28;20239;-68
2022/05/08 00:56:07;;;;;;;2.40;1.70;;;;;;;;;;5049633;28;20219;-69
2022/05/08 00:58:34;;;;;;;2.10;1.45;;;;;;;;;;5050239;28;20052;-67
2022/05/08 01:01:00;;;;;;;2.10;1.50;;;;;;;;;;5049469;28;20174;-68
2022/05/08 01:03:25;;;;;;;3.47;1.80;;;;;;;;;;5050103;28;20235;-68
2022/05/08 01:05:54;;;;;;;3.50;1.90;;;;;;;;;;5049549;28;20029;-65
2022/05/08 01:08:21;;;;;;;4.03;1.83;;;;;;;;;;5049798;28;20079;-66
2022/05/08 01:10:47;;;;;;;4.88;1.80;;;;;;;;;;5049490;28;20044;-69
2022/05/08 01:13:12;;;;;;;2.88;1.75;;;;;;;;;;5049796;28;20056;-68
2022/05/08 01:15:46;;;;;;;4.30;1.83;;;;;;;;;;5049538;28;20033;-66
2022/05/08 01:18:13;;;;;;;4.93;2.00;;;;;;;;;;5049766;28;20021;-66
2022/05/08 01:20:40;;;;;;;3.78;1.98;;;;;;;;;;5049098;28;20075;-67
2022/05/08 01:23:06;;;;;;;5.65;2.30;;;;;;;;;;5049609;28;20095;-69
2022/05/08 01:25:35;;;;;;;6.25;2.30;;;;;;;;;;5049240;28;20439;-68
2022/05/08 01:28:04;;;;;;;4.13;2.00;;;;;;;;;;5050118;28;20033;-68
2022/05/08 01:30:32;;;;;;;3.28;1.80;;;;;;;;;;5049291;28;20032;-67
2022/05/08 01:33:00;;;;;;;5.53;2.08;;;;;;;;;;5049733;28;20021;-67
2022/05/08 01:35:25;;;;;;;4.60;1.77;;;;;;;;;;5049924;28;20032;-66
2022/05/08 01:37:51;;;;;;;5.18;1.70;;;;;;;;;;5049498;28;20017;-68
2022/05/08 01:40:17;;;;;;;3.80;1.70;;;;;;;;;;5049113;28;20147;-68
2022/05/08 01:42:44;;;;;;;6.65;2.20;;;;;;;;;;5049222;28;20041;-68
2022/05/08 01:45:11;;;;;;;3.90;2.00;;;;;;;;;;5049456;28;20089;-68
2022/05/08 01:50:20;;;;;;;3.67;1.75;;;;;;;;;;5049389;28;20040;-68
2022/05/08 01:52:46;;;;;;;5.35;1.80;;;;;;;;;;5052308;28;20036;-69
2022/05/08 01:55:11;;;;;;;2.80;1.50;;;;;;;;;;5053178;28;20021;-65
2022/05/08 01:57:36;;;;;;;3.22;1.70;;;;;;;;;;5053212;28;20029;-67
2022/05/08 02:00:02;;;;;;;2.75;1.75;;;;;;;;;;5052913;28;20036;-65
2022/05/08 02:02:28;;;;;;;3.53;1.60;;;;;;;;;;5035428;28;20079;-68
2022/05/08 02:04:54;;;;;;;2.55;1.77;;;;;;;;;;5053282;28;20068;-67
2022/05/08 02:07:19;;;;;;;2.40;1.60;;;;;;;;;;5053346;28;20393;-69
2022/05/08 02:09:45;;;;;;;3.58;1.85;;;;;;;;;;5053059;28;20541;-65
2022/05/08 02:12:11;;;;;;;2.60;1.50;;;;;;;;;;5052988;28;20021;-67
2022/05/08 02:14:37;;;;;;;3.67;1.70;;;;;;;;;;5052927;28;20048;-68
2022/05/08 02:17:04;;;;;;;3.40;1.50;;;;;;;;;;5052870;28;20102;-66
2022/05/08 02:19:29;;;;;;;5.63;1.67;;;;;;;;;;5052841;28;20163;-66
2022/05/08 02:21:55;;;;;;;4.53;1.70;;;;;;;;;;5052989;28;20104;-65
2022/05/08 02:24:20;;;;;;;3.75;1.60;;;;;;;;;;5053103;28;20487;-69
2022/05/08 02:26:45;;;;;;;4.25;1.90;;;;;;;;;;5052771;28;20387;-65
2022/05/08 02:29:11;;;;;;;2.58;1.48;;;;;;;;;;5052846;28;20029;-69
2022/05/08 02:31:36;;;;;;;3.80;1.60;;;;;;;;;;5052150;28;20032;-68
2022/05/08 02:34:02;;;;;;;4.45;1.75;;;;;;;;;;5052578;28;20033;-65
2022/05/08 02:36:27;;;;;;;3.90;1.70;;;;;;;;;;5052754;28;20186;-65
2022/05/08 02:38:53;;;;;;;2.97;1.67;;;;;;;;;;5053129;28;20064;-70
2022/05/08 02:41:18;;;;;;;2.35;1.50;;;;;;;;;;5052313;28;20029;-68
2022/05/08 02:43:44;;;;;;;3.03;1.50;;;;;;;;;;5052913;28;20021;-69
2022/05/08 02:46:09;;;;;;;4.07;1.67;;;;;;;;;;5052048;28;20025;-66
2022/05/08 02:48:35;;;;;;;2.47;1.50;;;;;;;;;;5052923;28;20021;-68
2022/05/08 02:51:00;;;;;;;3.25;1.60;;;;;;;;;;5052148;28;20059;-68
2022/05/08 02:53:26;;;;;;;3.20;1.60;;;;;;;;;;5052630;28;20083;-65
2022/05/08 02:58:35;;;;;;;3.33;1.70;;;;;;;;;;5052893;28;20028;-68
2022/05/08 03:01:03;;;;;;;3.53;2.10;;;;;;;;;;5051638;28;20104;-68
2022/05/08 03:03:30;;;;;;;3.63;1.90;;;;;;;;;;5050976;28;20025;-68
2022/05/08 03:05:55;;;;;;;2.83;1.95;;;;;;;;;;5051738;28;20411;-69
2022/05/08 03:08:21;;;;;;;4.50;1.90;;;;;;;;;;5052096;28;20089;-67
2022/05/08 03:13:36;;;;;;;4.28;1.95;;;;;;;;;;5052199;28;20040;-69
2022/05/08 03:16:06;;;;;;;2.83;1.80;;;;;;;;;;5051660;28;20037;-66
2022/05/08 03:18:32;;;;;;;4.43;1.95;;;;;;;;;;5051897;28;20021;-68
2022/05/08 03:20:58;;;;;;;4.30;1.80;;;;;;;;;;5051699;28;20036;-67
2022/05/08 03:23:23;;;;;;;4.82;2.00;;;;;;;;;;5051346;28;20035;-66
2022/05/08 03:25:49;;;;;;;2.95;1.90;;;;;;;;;;5051544;28;20362;-68
2022/05/08 03:28:16;;;;;;;4.13;2.08;;;;;;;;;;5051718;28;20157;-68
2022/05/08 03:30:43;;;;;;;2.13;1.60;;;;;;;;;;5051566;28;20531;-67
2022/05/08 03:33:09;;;;;;;3.35;1.80;;;;;;;;;;5051208;28;20025;-64
2022/05/08 03:35:36;;;;;;;2.40;1.55;;;;;;;;;;5051929;28;20033;-68
2022/05/08 03:38:01;;;;;;;3.08;1.60;;;;;;;;;;5051296;28;20036;-68
2022/05/08 03:40:27;;;;;;;2.88;1.55;;;;;;;;;;5051461;28;20037;-66
2022/05/08 03:42:55;;;;;;;2.00;1.48;;;;;;;;;;5050575;28;20044;-65
2022/05/08 03:45:21;;;;;;;3.42;1.52;;;;;;;;;;5051127;28;20029;-68
2022/05/08 03:47:50;;;;;;;2.60;1.70;;;;;;;;;;5051339;28;20036;-68
2022/05/08 03:50:20;;;;;;;3.67;1.55;;;;;;;;;;5051327;28;20090;-65
2022/05/08 03:52:45;;;;;;;2.50;1.50;;;;;;;;;;5050907;28;20029;-68
2022/05/08 03:55:11;;;;;;;3.25;1.60;;;;;;;;;;5051148;28;20074;-67
2022/05/08 03:57:37;;;;;;;4.13;1.75;;;;;;;;;;5050599;28;20090;-64
2022/05/08 04:00:04;;;;;;;7.70;1.70;;;;;;;;;;5050949;28;20029;-65
2022/05/08 04:02:29;;;;;;;2.42;1.63;;;;;;;;;;5050893;28;20051;-69
2022/05/08 04:04:54;;;;;;;2.97;1.60;;;;;;;;;;5051052;28;20068;-67
2022/05/08 04:07:20;;;;;;;2.65;1.88;;;;;;;;;;5050808;28;20049;-64
2022/05/08 04:09:45;;;;;;;3.78;1.92;;;;;;;;;;5050946;28;20033;-67
2022/05/08 04:12:11;;;;;;;2.45;1.70;;;;;;;;;;5050734;28;20036;-68
2022/05/08 04:14:36;;;;;;;3.08;1.70;;;;;;;;;;5050389;28;20307;-70
2022/05/08 04:17:02;;;;;;;2.90;1.80;;;;;;;;;;5050421;28;20029;-68
2022/05/08 04:19:28;;;;;;;2.75;1.63;;;;;;;;;;5050815;28;20224;-68
2022/05/08 04:24:16;;;;;;;3.22;1.77;;;;;;;;;;5050433;28;20044;-67
2022/05/08 04:24:41;;;;;;;2.83;1.70;;;;;;;;;;5050541;28;20504;-68
2022/05/08 04:27:06;;;;;;;3.10;1.70;;;;;;;;;;5050359;28;20025;-69
2022/05/08 04:29:32;;;;;;;3.08;1.77;;;;;;;;;;5050407;28;20369;-68
2022/05/08 04:31:57;;;;;;;3.15;1.80;;;;;;;;;;5050134;28;20067;-65
2022/05/08 04:34:22;;;;;;;5.30;2.00;;;;;;;;;;5050337;28;20064;-64
2022/05/08 04:36:48;;;;;;;3.38;1.90;;;;;;;;;;5050328;28;20074;-67
2022/05/08 04:39:13;;;;;;;3.30;1.70;;;;;;;;;;5032461;28;20077;-68
2022/05/08 04:41:39;;;;;;;4.00;1.90;;;;;;;;;;5050575;28;20440;-65
2022/05/08 04:44:04;;;;;;;3.53;1.80;;;;;;;;;;5050132;28;20036;-66
2022/05/08 04:46:31;;;;;;;4.10;1.80;;;;;;;;;;5050372;28;20116;-67
2022/05/08 04:48:56;;;;;;;3.35;1.80;;;;;;;;;;5050091;28;20029;-67
2022/05/08 04:51:22;;;;;;;5.20;1.50;;;;;;;;;;5050600;28;20067;-67
2022/05/08 04:53:47;;;;;;;3.20;1.85;;;;;;;;;;5049895;28;20271;-67
2022/05/08 04:56:13;;;;;;;2.33;1.58;;;;;;;;;;5050241;28;20390;-65
2022/05/08 04:58:38;;;;;;;2.22;1.83;;;;;;;;;;5049890;28;20017;-67
2022/05/08 05:01:05;;;;;;;3.38;1.70;;;;;;;;;;5050126;28;20056;-69
2022/05/08 05:03:30;;;;;;;2.63;1.60;;;;;;;;;;5049619;28;20381;-67
2022/05/08 05:05:57;;;;;;;8.15;1.80;;;;;;;;;;5050342;28;20021;-67
2022/05/08 05:08:22;;;;;;;5.43;1.80;;;;;;;;;;5049582;28;20024;-65
2022/05/08 05:10:48;;;;;;;2.38;1.60;;;;;;;;;;5049872;28;20026;-67
2022/05/08 05:13:13;;;;;;;3.17;1.80;;;;;;;;;;5049647;28;20496;-66
2022/05/08 05:15:39;;;;;;;2.70;1.90;;;;;;;;;;5050144;28;20090;-65
2022/05/08 05:18:04;;;;;;;4.38;1.90;;;;;;;;;;5049742;28;20370;-68
2022/05/08 05:20:30;;;;;;;3.90;2.20;;;;;;;;;;5049886;28;20555;-65
2022/05/08 05:23:00;;;;;;;4.13;2.00;;;;;;;;;;5049504;28;20052;-68
2022/05/08 05:25:26;;;;;;;3.33;1.83;;;;;;;;;;5049935;28;20029;-67
2022/05/08 05:27:52;;;;;;;3.40;2.00;;;;;;;;;;5052297;28;20280;-68
2022/05/08 05:30:18;;;;;;;3.55;2.10;;;;;;;;;;5053976;28;20219;-66
2022/05/08 05:32:43;;;;;;;5.53;2.30;;;;;;;;;;5054019;28;20241;-67
2022/05/08 05:35:09;;;;;;;4.22;2.22;;;;;;;;;;5054358;28;20100;-68
2022/05/08 05:37:35;;;;;;;3.25;2.08;;;;;;;;;;5053799;28;20040;-68
2022/05/08 05:40:00;;;;;;;3.95;2.05;;;;;;;;;;5053675;28;20029;-67
2022/05/08 05:42:25;;;;;;;4.28;2.05;;;;;;;;;;5053260;28;20044;-67
2022/05/08 05:44:51;;;;;;;4.50;1.88;;;;;;;;;;5053443;28;20036;-67
2022/05/08 05:50:00;;;;;;;4.07;1.90;;;;;;;;;;5053900;28;20523;-65
2022/05/08 05:52:26;;;;;;;3.28;1.92;;;;;;;;;;5053573;28;20017;-68
2022/05/08 05:54:52;;;;;;;4.88;1.92;;;;;;;;;;5053351;28;20261;-68
2022/05/08 05:57:17;;;;;;;3.38;2.10;;;;;;;;;;5053409;28;20029;-67
2022/05/08 05:59:43;;;;;;;4.90;1.95;;;;;;;;;;5052877;28;20040;-67
2022/05/08 06:02:08;;;;;;;4.10;2.10;;;;;;;;;;5053152;28;20028;-68
2022/05/08 06:04:33;;;;;;;3.55;2.08;;;;;;;;;;5052911;28;20385;-67
2022/05/08 06:06:59;;;;;;;3.95;1.98;;;;;;;;;;5053293;28;20104;-68
2022/05/08 06:09:24;;;;;;;3.30;2.08;;;;;;;;;;5053046;28;20044;-68
2022/05/08 06:11:52;;;;;;;4.07;2.05;;;;;;;;;;5053259;28;20103;-68
2022/05/08 06:14:18;;;;;;;2.78;1.80;;;;;;;;;;5052466;28;20025;-67
2022/05/08 06:16:44;;;;;;;4.60;2.10;;;;;;;;;;5052821;28;20129;-65
2022/05/08 06:19:09;;;;;;;3.47;2.13;;;;;;;;;;5052527;28;20171;-68
2022/05/08 06:21:35;;;;;;;5.50;2.00;;;;;;;;;;5052977;28;20492;-69
2022/05/08 06:24:00;;;;;;;4.78;2.00;;;;;;;;;;5052626;28;20032;-67
2022/05/08 06:26:26;;;;;;;4.15;2.08;;;;;;;;;;5052928;28;20055;-64
2022/05/08 06:28:52;;;;;;;4.82;2.50;;;;;;;;;;5052746;28;20040;-68
2022/05/08 06:31:17;;;;;;;4.90;2.03;;;;;;;;;;5053033;28;20024;-67
2022/05/08 06:33:46;;;;;;;3.30;2.05;;;;;;;;;;5052254;28;20040;-66
2022/05/08 06:36:12;;;;;;;3.72;2.03;;;;;;;;;;5052635;28;20191;-68
2022/05/08 06:38:38;;;;;;;3.30;1.98;;;;;;;;;;5052272;28;20514;-68
2022/05/08 06:41:04;;;;;;;5.10;2.10;;;;;;;;;;5052768;28;20033;-68
2022/05/08 06:43:29;;;;;;;3.92;2.13;;;;;;;;;;5052227;28;20135;-68
2022/05/08 06:45:55;;;;;;;2.42;1.75;;;;;;;;;;5052411;28;20112;-67
2022/05/08 06:48:21;;;;;;;3.58;1.80;;;;;;;;;;5052444;28;20055;-68
2022/05/08 06:50:47;;;;;;;3.95;1.90;;;;;;;;;;5052341;28;20036;-68
2022/05/08 06:53:12;;;;;;;3.45;2.05;;;;;;;;;;5052127;28;20107;-63
2022/05/08 06:55:38;;;;;;;4.32;2.00;;;;;;;;;;5052498;28;20032;-65
2022/05/08 06:58:04;;;;;;;4.03;2.03;;;;;;;;;;5052169;28;20220;-67
2022/05/08 07:03:14;;;;;;;4.55;1.73;;;;;;;;;;5052428;28;20166;-65
2022/05/08 07:05:45;;;;;;;4.55;1.80;;;;;;;;;;5051934;28;20040;-65
2022/05/08 07:08:10;;;;;;;4.97;2.00;;;;;;;;;;5052057;28;20124;-68
2022/05/08 07:10:36;;;;;;;4.57;2.00;;;;;;;;;;5051849;28;20104;-68
2022/05/08 07:13:01;;;;;;;3.10;1.80;;;;;;;;;;5051804;28;20531;-69
2022/05/08 07:15:27;;;;;;;3.30;2.00;;;;;;;;;;5047937;28;20025;-69
2022/05/08 07:17:52;;;;;;;3.58;1.80;;;;;;;;;;5051460;28;20469;-69
2022/05/08 07:20:18;;;;;;;3.38;1.80;;;;;;;;;;5051107;28;20102;-69
2022/05/08 07:22:43;;;;;;;6.10;2.03;;;;;;;;;;5051348;28;20056;-69
2022/05/08 07:25:11;;;;;;;3.85;1.90;;;;;;;;;;5050925;28;20032;-69
2022/05/08 07:27:39;;;;;;;6.60;2.00;;;;;;;;;;5051907;28;20029;-68
2022/05/08 07:30:06;;;;;;;3.58;1.98;;;;;;;;;;5051070;28;20029;-69
2022/05/08 07:32:33;;;;;;;5.07;1.80;;;;;;;;;;5051550;28;20029;-69
2022/05/08 07:37:43;;;;;;;4.72;2.08;;;;;;;;;;5051420;28;20055;-69
2022/05/08 07:40:11;;;;;;;4.75;1.98;;;;;;;;;;5051441;28;20021;-69
2022/05/08 07:42:36;;;;;;;2.88;1.90;;;;;;;;;;5051066;28;20045;-69
2022/05/08 07:45:03;;;;;;;5.53;1.80;;;;;;;;;;5050511;28;20032;-70
2022/05/08 07:47:28;;;;;;;3.83;1.70;;;;;;;;;;5051381;28;20033;-70
2022/05/08 07:49:53;;;;;;;4.70;2.00;;;;;;;;;;5050346;28;20435;-68
2022/05/08 07:52:19;;;;;;;3.63;1.85;;;;;;;;;;5051029;28;20018;-69
2022/05/08 07:54:45;;;;;;;2.90;1.90;;;;;;;;;;5050669;28;20092;-69
2022/05/08 07:57:10;;;;;;;3.83;1.85;;;;;;;;;;5050920;28;20078;-70
2022/05/08 07:59:35;;;;;;;3.75;2.00;;;;;;;;;;5050339;28;20018;-70
2022/05/08 08:02:02;;;;;;;5.75;2.10;;;;;;;;;;5050999;28;20374;-70
2022/05/08 08:04:28;;;;;;;3.65;1.80;;;;;;;;;;5050543;28;20029;-69
2022/05/08 08:06:53;;;;;;;6.03;1.92;;;;;;;;;;5050828;28;20033;-69
2022/05/08 08:09:20;;;;;;;3.55;1.90;;;;;;;;;;5050746;28;20495;-70
2022/05/08 08:11:45;;;;;;;3.63;1.70;;;;;;;;;;5050692;28;20255;-69
2022/05/08 08:14:11;;;;;;;3.60;2.05;;;;;;;;;;5050125;28;20527;-69
2022/05/08 08:16:37;;;;;;;4.53;1.95;;;;;;;;;;5049749;28;20037;-70
2022/05/08 08:19:02;;;;;;;5.65;2.08;;;;;;;;;;5050422;28;20079;-71
2022/05/08 08:21:27;;;;;;;5.95;1.90;;;;;;;;;;5050753;28;20033;-70
2022/05/08 08:23:53;;;;;;;6.03;2.03;;;;;;;;;;5050141;28;20024;-71
2022/05/08 08:26:19;;;;;;;4.43;1.95;;;;;;;;;;5032559;28;20060;-71
2022/05/08 08:28:44;;;;;;;4.10;2.13;;;;;;;;;;5050742;28;20025;-71
2022/05/08 08:31:10;;;;;;;5.53;2.20;;;;;;;;;;5050118;28;20078;-70
2022/05/08 08:33:40;;;;;;;3.85;2.08;;;;;;;;;;5050404;28;20039;-71
2022/05/08 08:36:09;;;;;;;3.13;1.70;;;;;;;;;;5050165;28;20048;-71
2022/05/08 08:38:36;;;;;;;3.92;2.00;;;;;;;;;;5050202;28;20054;-69
2022/05/08 08:41:04;;;;;;;5.50;2.05;;;;;;;;;;5049854;28;20180;-71
2022/05/08 08:47:42;;;;;;;4.28;2.00;;;;;;;;;;5050377;28;20037;-70
2022/05/08 08:49:02;;;;;;;3.15;1.73;;;;;;;;;;5045807;28;20056;-71
2022/05/08 08:51:27;;;;;;;3.72;1.90;;;;;;;;;;5049916;28;20295;-70
2022/05/08 08:53:55;;;;;;;3.38;1.85;;;;;;;;;;5037274;28;20635;-72
2022/05/08 08:56:21;;;;;;;3.88;1.90;;;;;;;;;;5049732;28;20112;-71
2022/05/08 08:58:47;;;;;;;3.33;1.83;;;;;;;;;;5049825;28;20170;-69
2022/05/08 09:01:14;;;;;;;2.63;1.90;;;;;;;;;;5048816;28;20525;-70
2022/05/08 09:03:39;;;;;;;6.97;2.30;;;;;;;;;;5031569;28;20080;-72
2022/05/08 09:06:08;;;;;;;2.65;1.80;;;;;;;;;;5049958;28;20480;-74
2022/05/08 09:08:37;;;;;;;3.97;1.90;;;;;;;;;;5049506;28;20033;-72
2022/05/08 09:11:03;;;;;;;3.30;1.88;;;;;;;;;;5031994;28;20025;-71
2022/05/08 09:13:30;;;;;;;4.40;2.15;;;;;;;;;;5048999;28;20067;-70
2022/05/08 09:16:04;;;;;;;4.57;2.13;;;;;;;;;;5045237;28;20074;-72
2022/05/08 09:18:29;;;;;;;4.57;2.30;;;;;;;;;;5048814;28;20029;-72
2022/05/08 09:21:54;;;;;;;3.33;2.00;;;;;;;;;;5048529;28;20028;-70
2022/05/08 09:23:42;;;;;;;4.45;2.10;;;;;;;;;;5047408;28;20533;-69
2022/05/08 09:26:08;;;;;;;4.25;2.20;;;;;;;;;;5049610;28;20197;-69
2022/05/08 09:28:42;;;;;;;5.00;2.03;;;;;;;;;;5048665;28;20540;-73
2022/05/08 09:31:12;;;;;;;3.92;2.40;;;;;;;;;;5048065;28;20118;-71
2022/05/08 09:33:43;;;;;;;4.63;2.30;;;;;;;;;;5048719;28;20021;-72
2022/05/08 09:36:10;;;;;;;3.88;2.15;;;;;;;;;;5048409;28;20025;-69
2022/05/08 09:38:49;;;;;;;3.35;2.15;;;;;;;;;;5048587;28;20439;-74
2022/05/08 09:41:17;;;;;;;2.95;2.03;;;;;;;;;;5048151;28;20025;-70
2022/05/08 09:43:42;;;;;;;4.65;2.20;;;;;;;;;;5048707;28;20078;-74
2022/05/08 09:46:09;;;;;;;3.13;2.00;;;;;;;;;;5048003;28;20354;-72
2022/05/08 09:48:35;;;;;;;5.57;1.90;;;;;;;;;;5048471;28;20226;-70
2022/05/08 09:51:04;;;;;;;4.03;2.10;;;;;;;;;;5048836;28;20021;-72
2022/05/08 09:53:31;;;;;;;3.15;2.17;;;;;;;;;;5048943;28;20033;-71
2022/05/08 09:55:58;;;;;;;2.83;2.00;;;;;;;;;;5048374;28;20021;-71
2022/05/08 09:58:25;;;;;;;4.07;1.90;;;;;;;;;;5048322;28;20468;-70
2022/05/08 10:00:52;;;;;;;4.13;2.10;;;;;;;;;;5047839;28;20029;-72
2022/05/08 10:03:19;;;;;;;5.78;2.67;;;;;;;;;;5048490;28;20404;-73
2022/05/08 10:05:45;;;;;;;6.57;2.53;;;;;;;;;;5047867;28;20037;-73
2022/05/08 10:08:16;;;;;;;5.00;2.15;;;;;;;;;;5048287;28;20056;-73
2022/05/08 10:16:51;;;;;;;3.25;2.30;;;;;;;;;;5043494;28;20049;-70
2022/05/08 10:19:22;;;;;;;3.20;2.38;;;;;;;;;;5040408;28;20041;-73
2022/05/08 10:21:56;;;;;;;4.90;2.80;;;;;;;;;;5052472;28;20116;-70
2022/05/08 10:24:30;;;;;;;5.70;2.60;;;;;;;;;;5037125;28;20052;-71
2022/05/08 10:27:11;;;;;;;4.35;2.65;;;;;;;;;;5045872;28;20072;-71
2022/05/08 10:29:38;;;;;;;3.72;2.50;;;;;;;;;;5045705;28;20029;-70
2022/05/08 10:32:06;;;;;;;4.15;2.28;;;;;;;;;;5039730;28;20090;-70
2022/05/08 10:34:37;;;;;;;3.53;2.45;;;;;;;;;;5033538;28;20041;-71
2022/05/08 10:37:12;;;;;;;4.85;2.55;;;;;;;;;;5052919;28;20071;-72
2022/05/08 10:39:47;;;;;;;4.07;2.67;;;;;;;;;;5049865;28;20029;-70
2022/05/08 10:42:22;;;;;;;6.32;3.90;;;;;;;;;;5050624;28;20055;-73
2022/05/08 10:44:47;;;;;;;6.03;3.40;;;;;;;;;;5051019;28;20802;-73
2022/05/08 10:47:40;;;;;;;5.28;2.72;;;;;;;;;;5051051;28;20108;-73
2022/05/08 10:50:07;;;;;;;5.15;2.40;;;;;;;;;;5051414;28;20086;-72
2022/05/08 10:52:38;;;;;;;4.55;2.50;;;;;;;;;;5051032;28;20032;-71
2022/05/08 10:55:07;;;;;;;7.50;3.20;;;;;;;;;;5051425;28;20169;-73
2022/05/08 10:57:36;;;;;;;5.47;2.90;;;;;;;;;;5050810;28;20076;-72
2022/05/08 11:00:25;;;;;;;4.90;2.72;;;;;;;;;;5051190;28;20025;-71
2022/05/08 11:02:59;;;;;;;5.15;2.70;;;;;;;;;;5050693;28;20041;-70
2022/05/08 11:05:32;;;;;;;4.68;2.72;;;;;;;;;;5051358;28;20032;-72
2022/05/08 11:08:05;;;;;;;5.00;3.10;;;;;;;;;;5052321;28;20157;-72
2022/05/08 11:10:33;;;;;;;15.75;8.85;;;;;;;;;;5050760;28;20527;-69
2022/05/08 11:13:00;;;;;;;12.20;6.82;;;;;;;;;;5050837;28;20031;-73
2022/05/08 11:15:34;;;;;;;9.88;5.35;;;;;;;;;;5050765;28;20065;-71
2022/05/08 11:18:12;;;;;;;4.13;2.00;;;;;;;;;;5041935;28;20036;-72
2022/05/08 11:20:47;;;;;;;6.40;2.25;;;;;;;;;;5046299;28;20021;-72
2022/05/08 11:23:17;;;;;;;4.20;1.80;;;;;;;;;;5050647;28;20021;-71
2022/05/08 11:25:50;;;;;;;4.18;2.05;;;;;;;;;;5049906;28;20033;-72
2022/05/08 11:28:18;;;;;;;2.40;1.77;;;;;;;;;;5050358;28;20087;-69
2022/05/08 11:30:46;;;;;;;4.45;1.85;;;;;;;;;;5050528;28;20025;-69
2022/05/08 11:36:05;;;;;;;3.72;2.08;;;;;;;;;;5045725;28;20036;-74
2022/05/08 11:38:50;;;;;;;4.82;1.80;;;;;;;;;;5052336;28;20392;-71
2022/05/08 11:41:18;;;;;;;9.55;5.75;;;;;;;;;;5050366;28;20109;-73
2022/05/08 11:43:45;;;;;;;5.70;3.08;;;;;;;;;;5050283;28;20029;-70
2022/05/08 11:46:15;;;;;;;2.88;1.98;;;;;;;;;;5050006;28;20028;-72
2022/05/08 11:48:50;;;;;;;3.47;1.80;;;;;;;;;;5051112;28;20113;-71
2022/05/08 11:51:19;;;;;;;3.50;1.95;;;;;;;;;;5050504;28;20055;-72
2022/05/08 11:53:46;;;;;;;10.40;5.75;;;;;;;;;;5050937;28;20067;-70
2022/05/08 11:56:30;;;;;;;5.65;3.67;;;;;;;;;;5050164;28;20035;-71
2022/05/08 11:59:01;;;;;;;3.80;2.72;;;;;;;;;;5049959;28;20060;-71
2022/05/08 12:01:29;;;;;;;2.70;1.73;;;;;;;;;;5049859;28;20027;-70
2022/05/08 12:04:18;;;;;;;11.25;5.97;;;;;;;;;;5050129;28;20031;-72
2022/05/08 12:07:28;;;;;;;21.48;12.93;;;;;;;;;;5041851;28;20072;-72
2022/05/08 12:09:55;;;;;;;9.80;4.63;;;;;;;;;;5023155;28;20041;-71
2022/05/08 12:12:30;;;;;;;3.72;2.15;;;;;;;;;;5049847;28;20071;-72
2022/05/08 12:14:57;;;;;;;3.25;1.70;;;;;;;;;;5049649;28;20485;-73
2022/05/08 12:17:23;;;;;;;4.38;2.22;;;;;;;;;;5044394;28;20496;-71
2022/05/08 12:20:09;;;;;;;3.17;1.70;;;;;;;;;;5050309;28;20123;-70
2022/05/08 12:22:34;;;;;;;2.42;1.65;;;;;;;;;;5051292;28;20029;-72
2022/05/08 12:25:00;;;;;;;4.35;2.08;;;;;;;;;;5069074;28;20039;-69
2022/05/08 12:27:25;;;;;;;1.92;1.40;;;;;;;;;;5069441;28;20088;-71
2022/05/08 12:29:53;;;;;;;1.70;1.40;;;;;;;;;;5069395;28;20029;-69
2022/05/08 12:32:20;;;;;;;2.97;1.40;;;;;;;;;;5069703;28;20024;-74
2022/05/08 12:34:46;;;;;;;2.78;1.52;;;;;;;;;;5069805;28;20036;-72
2022/05/08 12:37:13;;;;;;;5.60;1.40;;;;;;;;;;5069311;28;20028;-70
2022/05/08 12:39:40;;;;;;;6.32;2.25;;;;;;;;;;5069754;28;20051;-70
2022/05/08 12:42:06;;;;;;;2.88;1.40;;;;;;;;;;5069321;28;20771;-72
2022/05/08 12:44:33;;;;;;;3.63;1.48;;;;;;;;;;5068983;28;20395;-73
2022/05/08 12:47:00;;;;;;;3.33;1.50;;;;;;;;;;5069780;28;20361;-70
2022/05/08 12:49:26;;;;;;;2.90;1.50;;;;;;;;;;5069032;28;20028;-72
2022/05/08 12:51:51;;;;;;;2.08;1.67;;;;;;;;;;5069443;28;20035;-72
2022/05/08 12:54:16;;;;;;;2.42;1.30;;;;;;;;;;5069239;28;20119;-73
2022/05/08 12:56:44;;;;;;;3.17;1.40;;;;;;;;;;5069780;28;20032;-74
2022/05/08 13:01:54;;;;;;;2.85;1.75;;;;;;;;;;5069768;28;20032;-71
2022/05/08 13:04:19;;;;;;;1.90;1.20;;;;;;;;;;5069265;28;20025;-74
2022/05/08 13:06:46;;;;;;;3.78;1.73;;;;;;;;;;5069284;28;20101;-72
2022/05/08 13:09:12;;;;;;;4.18;2.10;;;;;;;;;;5068687;28;20398;-70
2022/05/08 13:11:38;;;;;;;2.78;1.67;;;;;;;;;;5069228;28;20021;-73
2022/05/08 13:14:04;;;;;;;3.35;1.80;;;;;;;;;;5051073;28;20032;-71
2022/05/08 13:16:30;;;;;;;3.70;1.98;;;;;;;;;;5068898;28;20025;-74
2022/05/08 13:18:55;;;;;;;3.95;2.00;;;;;;;;;;5049091;28;20032;-69
2022/05/08 13:21:21;;;;;;;4.20;1.80;;;;;;;;;;5041048;28;20014;-72
2022/05/08 13:23:47;;;;;;;3.55;1.75;;;;;;;;;;5045981;28;20025;-74
2022/05/08 13:26:13;;;;;;;4.60;2.03;;;;;;;;;;5030485;28;20029;-72
2022/05/08 13:28:38;;;;;;;3.50;1.85;;;;;;;;;;5031386;28;20028;-73
2022/05/08 13:31:04;;;;;;;2.72;1.67;;;;;;;;;;5047975;28;20537;-72
2022/05/08 13:33:30;;;;;;;3.03;1.58;;;;;;;;;;5049312;28;20033;-71
2022/05/08 13:35:56;;;;;;;4.70;1.70;;;;;;;;;;5048472;28;20037;-73
2022/05/08 13:38:23;;;;;;;3.95;1.70;;;;;;;;;;5049139;28;20021;-71
2022/05/08 13:40:51;;;;;;;2.33;1.70;;;;;;;;;;5049822;28;20416;-73
2022/05/08 13:43:17;;;;;;;3.63;1.80;;;;;;;;;;5045018;28;20139;-72
2022/05/08 13:45:43;;;;;;;3.55;1.90;;;;;;;;;;5048885;28;20415;-70
2022/05/08 13:48:12;;;;;;;3.15;1.60;;;;;;;;;;5050377;28;20043;-71
2022/05/08 13:50:39;;;;;;;4.45;1.80;;;;;;;;;;5053308;28;20021;-70
2022/05/08 13:53:08;;;;;;;3.97;1.88;;;;;;;;;;5053191;28;20245;-70
2022/05/08 13:55:38;;;;;;;4.82;1.60;;;;;;;;;;5047540;28;20071;-71
2022/05/08 13:58:08;;;;;;;4.28;1.80;;;;;;;;;;5049467;28;20021;-70
2022/05/08 14:00:34;;;;;;;3.72;1.85;;;;;;;;;;5051681;28;20033;-69
2022/05/08 14:03:01;;;;;;;3.92;1.70;;;;;;;;;;5051506;28;20029;-69
2022/05/08 14:05:26;;;;;;;5.68;1.70;;;;;;;;;;5051824;28;20032;-69
2022/05/08 14:07:52;;;;;;;4.20;1.60;;;;;;;;;;5051939;28;20025;-70
2022/05/08 14:10:18;;;;;;;17.90;2.08;;;;;;;;;;5052334;28;20053;-70
2022/05/08 14:12:45;;;;;;;3.65;1.60;;;;;;;;;;5052213;28;20452;-71
2022/05/08 14:15:11;;;;;;;4.22;1.70;;;;;;;;;;5051354;28;20028;-71
2022/05/08 14:17:36;;;;;;;5.22;1.70;;;;;;;;;;5052862;28;20116;-71
2022/05/08 14:20:03;;;;;;;4.65;1.67;;;;;;;;;;5051588;28;20108;-71
2022/05/08 14:22:28;;;;;;;3.47;1.90;;;;;;;;;;5051481;28;20090;-73
2022/05/08 14:24:54;;;;;;;4.07;1.60;;;;;;;;;;5051111;28;20021;-70
2022/05/08 14:27:21;;;;;;;4.45;1.80;;;;;;;;;;5051881;28;20028;-71
2022/05/08 14:29:47;;;;;;;3.63;1.70;;;;;;;;;;5035705;28;20029;-71
2022/05/08 14:37:40;;;;;;;5.93;1.75;;;;;;;;;;5032087;28;20048;-70
2022/05/08 14:40:07;;;;;;;4.03;1.88;;;;;;;;;;5031301;28;20444;-72
2022/05/08 14:42:32;;;;;;;3.95;1.80;;;;;;;;;;5032104;28;20049;-72
2022/05/08 14:44:58;;;;;;;2.67;1.67;;;;;;;;;;5032118;28;20109;-71
2022/05/08 14:47:23;;;;;;;4.57;1.70;;;;;;;;;;5032706;28;20600;-73
2022/05/08 14:49:48;;;;;;;3.22;1.60;;;;;;;;;;5032514;28;20029;-71
2022/05/08 14:52:14;;;;;;;4.53;1.90;;;;;;;;;;5032682;28;20409;-70
2022/05/08 14:54:39;;;;;;;3.30;1.60;;;;;;;;;;5032278;28;20100;-70
2022/05/08 14:57:08;;;;;;;4.88;1.60;;;;;;;;;;5032443;28;20018;-71
2022/05/08 14:59:34;;;;;;;4.93;1.83;;;;;;;;;;5030352;28;20033;-71
2022/05/08 15:01:59;;;;;;;4.90;1.90;;;;;;;;;;5032753;28;20030;-69
2022/05/08 15:04:25;;;;;;;3.47;2.10;;;;;;;;;;5032314;28;20425;-66
2022/05/08 15:06:51;;;;;;;4.32;1.85;;;;;;;;;;5032343;28;20108;-69
2022/05/08 15:09:17;;;;;;;3.00;1.70;;;;;;;;;;5031943;28;20049;-67
2022/05/08 15:11:43;;;;;;;6.18;1.70;;;;;;;;;;5014436;28;20481;-66
2022/05/08 15:14:10;;;;;;;4.90;1.92;;;;;;;;;;5031646;28;20405;-68
2022/05/08 15:16:35;;;;;;;3.95;1.70;;;;;;;;;;5032066;28;20034;-69
2022/05/08 15:19:02;;;;;;;6.47;1.92;;;;;;;;;;5032026;28;20025;-69
2022/05/08 15:21:28;;;;;;;4.15;1.77;;;;;;;;;;5031874;28;20485;-68